Time;durP1;ratioP1;P1;durP2;ratioP2;P2;SDS_P1;SDS_P2;PMS_P1;PMS_P2;Temp;Humidity;BMP_temperature;BMP_pressure;BME280_temperature;BME280_humidity;BME280_pressure;Samples;Min_cycle;Max_cycle;Signal;HPM_P1;HPM_P2
2022/03/07 00:00:07;;;;;;;13.90;8.30;;;;;;;-0.01;nan;99907.91;4890506;29;20656;-73
2022/03/07 00:02:32;;;;;;;11.70;8.80;;;;;;;0.01;nan;99911.31;4901215;29;20230;-72
2022/03/07 00:04:58;;;;;;;10.27;8.63;;;;;;;0.00;nan;99912.22;4901474;29;20269;-73
2022/03/07 00:07:23;;;;;;;14.63;9.17;;;;;;;0.01;nan;99901.00;4895374;29;20218;-73
2022/03/07 00:09:48;;;;;;;11.20;7.37;;;;;;;-0.01;nan;99911.34;4890253;29;20293;-73
2022/03/07 00:12:14;;;;;;;11.30;8.63;;;;;;;0.00;nan;99919.97;4897823;29;20215;-73
2022/03/07 00:14:39;;;;;;;10.77;7.67;;;;;;;-0.02;nan;99906.22;4898945;29;20214;-73
2022/03/07 00:17:05;;;;;;;12.20;8.30;;;;;;;-0.05;nan;99912.28;4891908;29;20282;-73
2022/03/07 00:19:30;;;;;;;9.57;7.17;;;;;;;-0.07;nan;99913.19;4894715;29;20217;-73
2022/03/07 00:21:56;;;;;;;12.30;8.17;;;;;;;-0.09;nan;99914.91;4903923;29;20246;-73
2022/03/07 00:24:21;;;;;;;15.63;8.87;;;;;;;-0.12;nan;99917.56;4901957;29;20313;-72
2022/03/07 00:26:46;;;;;;;10.30;7.80;;;;;;;-0.18;nan;99925.41;4895352;29;20282;-73
2022/03/07 00:29:12;;;;;;;12.60;8.80;;;;;;;-0.22;nan;99919.41;4896200;29;20222;-73
2022/03/07 00:31:37;;;;;;;12.50;9.10;;;;;;;-0.24;nan;99921.19;4890226;29;20591;-73
2022/03/07 00:34:03;;;;;;;12.80;8.13;;;;;;;-0.26;nan;99921.19;4897371;29;20206;-73
2022/03/07 00:36:28;;;;;;;9.67;8.67;;;;;;;-0.27;nan;99927.25;4900388;29;20459;-73
2022/03/07 00:38:54;;;;;;;11.80;9.03;;;;;;;-0.30;nan;99921.25;4892097;29;20258;-73
2022/03/07 00:41:19;;;;;;;14.97;8.93;;;;;;;-0.33;nan;99922.13;4895765;29;20253;-72
2022/03/07 00:43:45;;;;;;;15.00;9.30;;;;;;;-0.36;nan;99931.66;4882124;29;20614;-73
2022/03/07 00:46:10;;;;;;;11.53;8.57;;;;;;;-0.40;nan;99925.69;4887432;29;20207;-75
2022/03/07 00:48:35;;;;;;;11.87;8.70;;;;;;;-0.42;nan;99919.69;4876714;29;20277;-74
2022/03/07 00:51:01;;;;;;;15.30;8.53;;;;;;;-0.46;nan;99924.06;4890226;29;20231;-72
2022/03/07 00:53:27;;;;;;;12.93;9.67;;;;;;;-0.46;nan;99918.91;4883572;29;20243;-73
2022/03/07 00:55:55;;;;;;;17.35;8.77;;;;;;;-0.46;nan;99924.06;4907200;29;20470;-73
2022/03/07 00:58:22;;;;;;;16.88;9.25;;;;;;;-0.48;nan;99923.22;4900048;29;20249;-74
2022/03/07 01:00:49;;;;;;;10.93;8.20;;;;;;;-0.53;nan;99925.00;4877514;29;20210;-74
2022/03/07 01:03:16;;;;;;;14.15;8.90;;;;;;;-0.59;nan;99925.09;4893845;29;20234;-73
2022/03/07 01:05:41;;;;;;;11.27;8.90;;;;;;;-0.62;nan;99934.59;4911689;29;20198;-73
2022/03/07 01:08:08;;;;;;;11.07;7.93;;;;;;;-0.67;nan;99929.50;4899851;29;20242;-73
2022/03/07 01:10:34;;;;;;;12.93;9.00;;;;;;;-0.69;nan;99929.50;4903996;29;20305;-74
2022/03/07 01:13:00;;;;;;;11.40;7.50;;;;;;;-0.74;nan;99925.28;4900915;29;20576;-73
2022/03/07 01:15:26;;;;;;;15.10;8.60;;;;;;;-0.87;nan;99927.16;4881641;29;20353;-74
2022/03/07 01:17:53;;;;;;;15.33;9.40;;;;;;;-0.93;nan;99914.34;4897741;29;20235;-74
2022/03/07 01:20:19;;;;;;;9.30;8.05;;;;;;;-0.98;nan;99918.69;4898381;29;20199;-73
2022/03/07 01:22:45;;;;;;;13.17;8.07;;;;;;;-1.03;nan;99923.91;4900958;29;20390;-73
2022/03/07 01:25:10;;;;;;;10.67;6.80;;;;;;;-1.04;nan;99914.47;4892584;29;20304;-74
2022/03/07 01:27:36;;;;;;;12.90;8.23;;;;;;;-1.07;nan;99913.66;4899879;29;20218;-74
2022/03/07 01:30:02;;;;;;;13.20;8.80;;;;;;;-1.10;nan;99922.28;4886205;29;20557;-73
2022/03/07 01:32:28;;;;;;;14.05;8.90;;;;;;;-1.12;nan;99913.69;4896173;29;20610;-73
2022/03/07 01:34:53;;;;;;;13.23;9.47;;;;;;;-1.13;nan;99910.28;4898023;29;20218;-73
2022/03/07 01:37:19;;;;;;;11.57;7.73;;;;;;;-1.14;nan;99911.13;4898462;29;20246;-73
2022/03/07 01:39:44;;;;;;;10.90;8.90;;;;;;;-1.14;nan;99911.13;4904265;29;20663;-73
2022/03/07 01:42:10;;;;;;;10.10;8.23;;;;;;;-1.16;nan;99917.16;4900706;29;20230;-73
2022/03/07 01:44:36;;;;;;;11.83;9.10;;;;;;;-1.20;nan;99908.63;4869887;29;20214;-73
2022/03/07 01:47:03;;;;;;;11.80;7.80;;;;;;;-1.23;nan;99908.66;4897774;29;20203;-74
2022/03/07 01:49:29;;;;;;;12.85;8.05;;;;;;;-1.26;nan;99903.53;4900424;29;20222;-75
2022/03/07 01:51:56;;;;;;;12.30;8.40;;;;;;;-1.28;nan;99907.84;4902876;29;20258;-73
2022/03/07 01:54:22;;;;;;;11.55;8.02;;;;;;;-1.32;nan;99906.19;4895915;29;20203;-74
2022/03/07 01:56:49;;;;;;;11.48;8.25;;;;;;;-1.33;nan;99901.88;4885499;29;20246;-73
2022/03/07 01:59:19;;;;;;;19.10;9.20;;;;;;;-1.33;nan;99904.47;4879863;29;20218;-74
2022/03/07 02:01:44;;;;;;;12.80;9.82;;;;;;;-1.33;nan;99900.16;4889800;29;20484;-74
2022/03/07 02:04:10;;;;;;;15.33;9.00;;;;;;;-1.36;nan;99896.78;4902060;29;20282;-74
2022/03/07 02:06:38;;;;;;;13.03;8.93;;;;;;;-1.42;nan;99904.56;4903821;29;20794;-74
2022/03/07 02:09:05;;;;;;;12.85;9.57;;;;;;;-1.52;nan;99902.94;4879057;29;20472;-74
2022/03/07 02:11:37;;;;;;;13.73;9.13;;;;;;;-1.60;nan;99895.28;4887159;29;20233;-74
2022/03/07 02:14:13;;;;;;;14.07;10.65;;;;;;;-1.66;nan;99896.22;4873232;29;20731;-74
2022/03/07 02:16:41;;;;;;;12.48;10.02;;;;;;;-1.66;nan;99896.22;4881313;29;20823;-75
2022/03/07 02:19:07;;;;;;;15.55;10.23;;;;;;;-1.68;nan;99897.94;4892865;29;20231;-74
2022/03/07 02:21:34;;;;;;;12.30;9.88;;;;;;;-1.66;nan;99890.22;4885944;29;20329;-74
2022/03/07 02:24:29;;;;;;;12.57;8.70;;;;;;;-1.66;nan;99890.22;4890828;29;20227;-74
2022/03/07 02:27:01;;;;;;;13.68;8.55;;;;;;;-1.67;nan;99891.94;4888556;29;20218;-75
2022/03/07 02:29:28;;;;;;;13.05;9.93;;;;;;;-1.68;nan;99887.63;4880441;29;21018;-74
2022/03/07 02:31:56;;;;;;;13.93;9.27;;;;;;;-1.71;nan;99892.81;4875112;29;20644;-73
2022/03/07 02:34:23;;;;;;;13.38;8.85;;;;;;;-1.70;nan;99886.81;4896498;29;20298;-73
2022/03/07 02:36:48;;;;;;;14.90;11.10;;;;;;;-1.70;nan;99889.41;4887733;29;20237;-74
2022/03/07 02:39:14;;;;;;;11.40;8.83;;;;;;;-1.73;nan;99883.41;4882380;29;20206;-74
2022/03/07 02:41:41;;;;;;;14.55;10.38;;;;;;;-1.75;nan;99882.59;4896436;29;20238;-74
2022/03/07 02:44:07;;;;;;;13.30;9.90;;;;;;;-1.78;nan;99880.88;4881737;29;20207;-74
2022/03/07 02:46:33;;;;;;;13.40;8.27;;;;;;;-1.79;nan;99874.00;4892338;29;20214;-74
2022/03/07 02:48:58;;;;;;;16.50;10.43;;;;;;;-1.76;nan;99883.44;4903624;29;20704;-74
2022/03/07 02:51:24;;;;;;;11.40;8.33;;;;;;;-1.73;nan;99875.69;4898750;29;20667;-74
2022/03/07 02:53:49;;;;;;;14.13;9.10;;;;;;;-1.73;nan;99884.25;4910016;29;20622;-74
2022/03/07 02:56:15;;;;;;;12.37;7.40;;;;;;;-1.76;nan;99884.28;4901497;29;20302;-75
2022/03/07 02:58:41;;;;;;;14.68;8.90;;;;;;;-1.80;nan;99880.03;4902951;29;20290;-74
2022/03/07 03:01:07;;;;;;;14.48;9.32;;;;;;;-1.84;nan;99884.34;4900293;29;20591;-74
2022/03/07 03:03:33;;;;;;;13.70;8.90;;;;;;;-1.87;nan;99875.81;4879155;29;20222;-74
2022/03/07 03:05:59;;;;;;;12.27;7.90;;;;;;;-1.92;nan;99874.97;4894390;29;20202;-75
2022/03/07 03:08:24;;;;;;;16.83;10.60;;;;;;;-1.96;nan;99887.03;4891593;29;20314;-75
2022/03/07 03:10:50;;;;;;;11.80;10.27;;;;;;;-1.97;nan;99887.03;4900827;29;20705;-75
2022/03/07 03:13:20;;;;;;;15.90;9.00;;;;;;;-2.03;nan;99886.22;4904599;29;20227;-76
2022/03/07 03:15:46;;;;;;;17.70;8.80;;;;;;;-2.05;nan;99884.56;4903250;29;20265;-74
2022/03/07 03:18:13;;;;;;;11.35;8.10;;;;;;;-2.06;nan;99883.66;4896889;29;20226;-74
2022/03/07 03:20:39;;;;;;;13.15;8.90;;;;;;;-2.09;nan;99878.56;4894980;29;20211;-74
2022/03/07 03:23:05;;;;;;;11.57;8.25;;;;;;;-2.10;nan;99887.16;4896168;29;20245;-74
2022/03/07 03:25:31;;;;;;;12.90;8.98;;;;;;;-2.12;nan;99888.88;4901893;29;20561;-74
2022/03/07 03:27:57;;;;;;;14.37;9.73;;;;;;;-2.12;nan;99890.59;4893202;29;20206;-74
2022/03/07 03:30:22;;;;;;;16.47;9.30;;;;;;;-2.18;nan;99890.66;4889724;29;20213;-75
2022/03/07 03:32:48;;;;;;;16.67;12.65;;;;;;;-2.20;nan;99893.22;4901115;29;20498;-74
2022/03/07 03:35:13;;;;;;;17.77;9.40;;;;;;;-2.25;nan;99895.81;4888870;29;20691;-75
2022/03/07 03:37:39;;;;;;;13.73;8.40;;;;;;;-2.28;nan;99895.00;4902440;29;20245;-74
2022/03/07 03:40:06;;;;;;;11.20;8.13;;;;;;;-2.33;nan;99891.59;4890236;29;20209;-74
2022/03/07 03:42:32;;;;;;;13.85;8.93;;;;;;;-2.39;nan;99892.50;4890917;29;20313;-74
2022/03/07 03:44:57;;;;;;;10.53;8.93;;;;;;;-2.46;nan;99890.81;4890308;29;20277;-74
2022/03/07 03:47:23;;;;;;;13.40;9.37;;;;;;;-2.53;nan;99897.72;4890477;29;20314;-74
2022/03/07 03:49:48;;;;;;;15.33;8.90;;;;;;;-2.56;nan;99895.19;4895156;29;20207;-75
2022/03/07 03:52:14;;;;;;;19.23;11.47;;;;;;;-2.56;nan;99896.91;4889775;29;20604;-74
2022/03/07 03:54:39;;;;;;;26.10;13.07;;;;;;;-2.54;nan;99896.03;4894079;29;20298;-74
2022/03/07 03:57:05;;;;;;;16.63;10.00;;;;;;;-2.54;nan;99896.03;4895906;29;20207;-74
2022/03/07 03:59:31;;;;;;;12.03;9.10;;;;;;;-2.53;nan;99905.44;4902928;29;20214;-74
2022/03/07 04:01:57;;;;;;;15.10;10.10;;;;;;;-2.53;nan;99902.88;4904825;29;20233;-74
2022/03/07 04:04:22;;;;;;;16.13;9.83;;;;;;;-2.53;nan;99902.88;4890005;29;20214;-75
2022/03/07 04:06:48;;;;;;;13.40;8.90;;;;;;;-2.55;nan;99906.31;4889970;29;20202;-74
2022/03/07 04:09:21;;;;;;;14.17;9.13;;;;;;;-2.53;nan;99899.47;4889172;29;20779;-74
2022/03/07 04:11:47;;;;;;;40.42;36.88;;;;;;;-2.54;nan;99906.31;4890706;29;20290;-74
2022/03/07 04:14:14;;;;;;;15.55;12.93;;;;;;;-2.54;nan;99908.00;4894568;29;20201;-74
2022/03/07 04:16:40;;;;;;;15.15;11.85;;;;;;;-2.58;nan;99904.63;4891190;29;20206;-74
2022/03/07 04:19:07;;;;;;;19.23;10.90;;;;;;;-2.58;nan;99907.19;4896514;29;20636;-74
2022/03/07 04:21:33;;;;;;;20.08;10.15;;;;;;;-2.56;nan;99900.31;4898534;29;20525;-74
2022/03/07 04:23:59;;;;;;;16.70;10.85;;;;;;;-2.57;nan;99908.03;4897357;29;20286;-74
2022/03/07 04:26:25;;;;;;;14.17;9.00;;;;;;;-2.60;nan;99908.91;4888699;29;20227;-74
2022/03/07 04:28:51;;;;;;;16.57;11.10;;;;;;;-2.62;nan;99908.09;4888604;29;20463;-74
2022/03/07 04:31:16;;;;;;;13.82;9.43;;;;;;;-2.60;nan;99913.19;4905504;29;20506;-74
2022/03/07 04:33:42;;;;;;;14.10;9.40;;;;;;;-2.65;nan;99913.22;4904283;29;20210;-74
2022/03/07 04:36:07;;;;;;;17.83;11.90;;;;;;;-2.78;nan;99911.56;4891631;29;20576;-74
2022/03/07 04:38:32;;;;;;;12.27;8.33;;;;;;;-2.83;nan;99918.47;4891774;29;20253;-74
2022/03/07 04:40:58;;;;;;;11.90;7.77;;;;;;;-2.88;nan;99917.63;4893505;29;20575;-74
2022/03/07 04:43:24;;;;;;;20.87;11.27;;;;;;;-2.90;nan;99915.91;4897212;29;20571;-74
2022/03/07 04:45:52;;;;;;;14.93;9.43;;;;;;;-2.91;nan;99911.63;4893580;29;20546;-74
2022/03/07 04:48:18;;;;;;;13.50;8.55;;;;;;;-2.93;nan;99918.47;4896989;29;21099;-74
2022/03/07 04:50:45;;;;;;;16.30;9.55;;;;;;;-2.96;nan;99925.38;4895308;29;20313;-74
2022/03/07 04:53:10;;;;;;;15.87;9.30;;;;;;;-2.99;nan;99931.38;4898619;29;20329;-74
2022/03/07 04:55:36;;;;;;;15.20;10.57;;;;;;;-3.08;nan;99923.66;4895676;29;20211;-74
2022/03/07 04:58:01;;;;;;;11.40;8.90;;;;;;;-3.14;nan;99921.97;4899348;29;20560;-74
2022/03/07 05:00:27;;;;;;;16.65;12.05;;;;;;;-3.16;nan;99928.84;4902828;29;20885;-74
2022/03/07 05:02:53;;;;;;;17.03;13.90;;;;;;;-3.17;nan;99923.72;4889991;29;21164;-74
2022/03/07 05:05:20;;;;;;;15.35;12.55;;;;;;;-3.20;nan;99921.16;4893286;29;20222;-74
2022/03/07 05:07:45;;;;;;;13.48;10.55;;;;;;;-3.18;nan;99924.59;4893819;29;20865;-74
2022/03/07 05:10:10;;;;;;;11.80;9.70;;;;;;;-3.22;nan;99922.88;4907606;29;20289;-74
2022/03/07 05:12:36;;;;;;;16.10;10.37;;;;;;;-3.24;nan;99928.03;4900454;29;20711;-74
2022/03/07 05:15:03;;;;;;;13.45;9.23;;;;;;;-3.22;nan;99935.72;4908880;29;20303;-74
2022/03/07 05:17:28;;;;;;;15.90;9.38;;;;;;;-3.21;nan;99929.72;4901707;29;20680;-74
2022/03/07 05:19:54;;;;;;;12.63;8.57;;;;;;;-3.20;nan;99931.44;4899392;29;20214;-74
2022/03/07 05:22:19;;;;;;;11.10;8.33;;;;;;;-3.22;nan;99931.41;4904341;29;20287;-74
2022/03/07 05:24:45;;;;;;;11.20;8.07;;;;;;;-3.31;nan;99934.03;4880533;29;20330;-74
2022/03/07 05:27:10;;;;;;;13.00;9.13;;;;;;;-3.38;nan;99932.31;4900063;29;20218;-74
2022/03/07 05:29:36;;;;;;;16.30;9.57;;;;;;;-3.41;nan;99929.75;4896417;29;20271;-74
2022/03/07 05:32:02;;;;;;;14.70;11.27;;;;;;;-3.41;nan;99927.19;4899315;29;20700;-74
2022/03/07 05:34:28;;;;;;;13.93;9.70;;;;;;;-3.47;nan;99933.19;4899891;29;20738;-74
2022/03/07 05:36:53;;;;;;;12.77;10.60;;;;;;;-3.46;nan;99936.63;4896984;29;20207;-74
2022/03/07 05:39:19;;;;;;;14.07;9.60;;;;;;;-3.43;nan;99932.34;4534209;29;10008924;-74
2022/03/07 05:41:45;;;;;;;14.60;9.33;;;;;;;-3.42;nan;99943.47;4902045;29;20226;-74
2022/03/07 05:44:10;;;;;;;13.40;7.50;;;;;;;-3.46;nan;99934.03;4896716;29;20238;-74
2022/03/07 05:46:36;;;;;;;14.40;8.50;;;;;;;-3.49;nan;99941.75;4897730;29;20214;-74
2022/03/07 05:49:02;;;;;;;15.63;8.40;;;;;;;-3.56;nan;99948.63;4910563;29;20664;-74
2022/03/07 05:51:27;;;;;;;14.45;9.55;;;;;;;-3.63;nan;99945.19;4901709;29;20583;-74
2022/03/07 05:53:53;;;;;;;11.67;7.93;;;;;;;-3.61;nan;99951.19;4904070;29;20310;-74
2022/03/07 05:56:19;;;;;;;17.63;10.33;;;;;;;-3.61;nan;99948.63;4895639;29;20206;-74
2022/03/07 05:58:46;;;;;;;15.32;8.95;;;;;;;-3.58;nan;99950.34;4901105;29;20711;-74
2022/03/07 06:01:12;;;;;;;18.17;9.70;;;;;;;-3.60;nan;99952.03;4900904;29;20496;-74
2022/03/07 06:03:38;;;;;;;15.55;9.95;;;;;;;-3.61;nan;99955.47;4898004;29;20549;-74
2022/03/07 06:06:03;;;;;;;18.37;8.33;;;;;;;-3.64;nan;99953.75;4899519;29;20229;-74
2022/03/07 06:08:29;;;;;;;12.13;8.20;;;;;;;-3.67;nan;99953.75;4895307;29;20523;-74
2022/03/07 06:10:54;;;;;;;13.40;9.00;;;;;;;-3.73;nan;99958.03;4900222;29;20595;-74
2022/03/07 06:13:19;;;;;;;11.00;8.00;;;;;;;-3.74;nan;99953.75;4895406;29;20345;-74
2022/03/07 06:15:45;;;;;;;12.70;8.20;;;;;;;-3.71;nan;99957.16;4893361;29;20395;-74
2022/03/07 06:18:12;;;;;;;12.30;8.23;;;;;;;-3.67;nan;99951.19;4897850;29;20222;-74
2022/03/07 06:20:37;;;;;;;14.77;8.60;;;;;;;-3.65;nan;99956.31;4900868;29;20481;-75
2022/03/07 06:23:04;;;;;;;13.20;8.70;;;;;;;-3.63;nan;99963.16;4900429;29;20227;-74
2022/03/07 06:25:33;;;;;;;16.70;10.98;;;;;;;-3.58;nan;99958.88;4880320;29;20211;-74
2022/03/07 06:27:59;;;;;;;12.45;8.82;;;;;;;-3.52;nan;99960.59;4898382;29;20202;-74
2022/03/07 06:30:24;;;;;;;21.30;10.93;;;;;;;-3.47;nan;99966.56;4900735;29;20219;-74
2022/03/07 06:32:50;;;;;;;21.13;13.40;;;;;;;-3.43;nan;99970.00;4898280;29;20698;-75
2022/03/07 06:35:15;;;;;;;16.93;11.07;;;;;;;-3.40;nan;99964.88;4897696;29;20218;-75
2022/03/07 06:37:51;;;;;;;19.50;11.10;;;;;;;-3.35;nan;99963.13;4898790;29;20226;-75
2022/03/07 06:40:18;;;;;;;15.88;10.82;;;;;;;-3.30;nan;99968.25;4888581;29;20261;-75
2022/03/07 06:42:44;;;;;;;16.40;11.30;;;;;;;-3.28;nan;99969.13;4891855;29;20332;-74
2022/03/07 06:45:12;;;;;;;14.23;10.10;;;;;;;-3.23;nan;99973.41;4892158;29;20602;-74
2022/03/07 06:47:42;;;;;;;16.58;10.75;;;;;;;-3.15;nan;99981.09;4893280;29;20226;-75
2022/03/07 06:50:08;;;;;;;17.52;10.02;;;;;;;-3.07;nan;99981.94;4895480;29;20218;-74
2022/03/07 06:52:34;;;;;;;16.58;12.70;;;;;;;-2.97;nan;99987.88;4892863;29;20254;-75
2022/03/07 06:54:59;;;;;;;15.30;10.57;;;;;;;-2.88;nan;99980.16;4893863;29;20203;-74
2022/03/07 06:57:25;;;;;;;15.80;10.70;;;;;;;-2.76;nan;99981.81;4893478;29;20222;-74
2022/03/07 06:59:50;;;;;;;11.87;10.17;;;;;;;-2.64;nan;99975.81;4894213;29;20217;-75
2022/03/07 07:02:16;;;;;;;18.10;14.80;;;;;;;-2.50;nan;99986.88;4893816;29;20514;-75
2022/03/07 07:04:42;;;;;;;17.47;13.13;;;;;;;-2.41;nan;99983.41;4890619;29;20222;-75
2022/03/07 07:07:08;;;;;;;15.02;11.93;;;;;;;-2.31;nan;99985.06;4893743;29;21177;-75
2022/03/07 07:09:34;;;;;;;17.23;12.15;;;;;;;-2.23;nan;99981.59;4892302;29;20710;-74
2022/03/07 07:11:59;;;;;;;19.67;10.80;;;;;;;-2.12;nan;99986.66;4881849;29;20230;-74
2022/03/07 07:14:25;;;;;;;14.97;12.30;;;;;;;-2.02;nan;99978.03;4889214;29;20229;-74
2022/03/07 07:16:50;;;;;;;17.03;9.83;;;;;;;-1.91;nan;99985.69;4891797;29;20231;-74
2022/03/07 07:19:16;;;;;;;17.47;10.97;;;;;;;-1.83;nan;99983.91;4885635;29;20216;-75
2022/03/07 07:21:41;;;;;;;14.63;10.60;;;;;;;-1.74;nan;99989.84;4871157;29;20216;-74
2022/03/07 07:24:07;;;;;;;13.70;10.70;;;;;;;-1.66;nan;99986.34;4886918;29;20238;-74
2022/03/07 07:26:33;;;;;;;13.60;10.60;;;;;;;-1.59;nan;99987.19;4887338;29;20226;-74
2022/03/07 07:28:58;;;;;;;14.30;11.10;;;;;;;-1.51;nan;99990.53;4887322;29;20527;-74
2022/03/07 07:31:24;;;;;;;15.97;12.33;;;;;;;-1.42;nan;99977.56;4888365;29;20491;-75
2022/03/07 07:33:49;;;;;;;13.60;10.30;;;;;;;-1.34;nan;99980.06;4885903;29;20642;-74
2022/03/07 07:36:15;;;;;;;19.67;11.90;;;;;;;-1.24;nan;99983.41;4886313;29;20211;-74
2022/03/07 07:38:41;;;;;;;17.90;10.73;;;;;;;-1.16;nan;99985.06;4888775;29;20227;-75
2022/03/07 07:41:06;;;;;;;12.27;10.27;;;;;;;-1.09;nan;99985.00;4886820;29;20477;-74
2022/03/07 07:43:32;;;;;;;13.63;11.53;;;;;;;-1.00;nan;99985.75;4885460;29;20531;-75
2022/03/07 07:45:58;;;;;;;19.73;12.37;;;;;;;-0.90;nan;99989.09;4884457;29;20210;-74
2022/03/07 07:48:23;;;;;;;16.30;12.00;;;;;;;-0.78;nan;99991.53;4885938;29;20866;-74
2022/03/07 07:50:48;;;;;;;19.63;10.90;;;;;;;-0.65;nan;99993.97;4888120;29;21562;-74
2022/03/07 07:53:14;;;;;;;17.60;10.67;;;;;;;-0.51;nan;99989.50;4884687;29;20609;-74
2022/03/07 07:55:39;;;;;;;15.63;11.60;;;;;;;-0.39;nan;99989.34;4885901;29;20218;-75
2022/03/07 07:58:05;;;;;;;14.47;10.23;;;;;;;-0.28;nan;100002.94;4888569;29;20222;-74
2022/03/07 08:00:30;;;;;;;11.00;7.70;;;;;;;-0.14;nan;99997.59;4886130;29;20315;-74
2022/03/07 08:02:56;;;;;;;13.80;10.97;;;;;;;0.06;nan;99997.34;4888239;29;20677;-74
2022/03/07 08:05:21;;;;;;;16.13;9.60;;;;;;;0.25;nan;99986.72;4885616;29;20668;-74
2022/03/07 08:07:47;;;;;;;11.50;9.00;;;;;;;0.41;nan;99998.53;4877160;29;20211;-74
2022/03/07 08:10:15;;;;;;;11.30;8.43;;;;;;;0.58;nan;99993.94;4879714;29;20582;-74
2022/03/07 08:12:40;;;;;;;11.32;8.40;;;;;;;0.75;nan;99987.63;4884604;29;20751;-74
2022/03/07 08:15:11;;;;;;;12.37;7.17;;;;;;;0.93;nan;99996.78;4887892;29;20210;-74
2022/03/07 08:17:52;;;;;;;10.25;8.43;;;;;;;1.06;nan;99993.94;4884934;29;20234;-74
2022/03/07 08:20:21;;;;;;;10.40;7.80;;;;;;;1.21;nan;99997.97;4883971;29;20235;-74
2022/03/07 08:22:48;;;;;;;12.65;9.68;;;;;;;1.53;nan;99997.34;4886600;29;20317;-74
2022/03/07 08:25:13;;;;;;;14.70;9.02;;;;;;;2.27;nan;99997.44;4885826;29;20573;-76
2022/03/07 08:27:39;;;;;;;10.93;8.50;;;;;;;3.08;nan;99995.44;4885791;29;20645;-74
2022/03/07 08:30:07;;;;;;;12.05;9.13;;;;;;;3.84;nan;99999.38;4887391;29;20298;-74
2022/03/07 08:32:34;;;;;;;14.70;12.77;;;;;;;4.55;nan;99996.25;4885458;29;20552;-75
2022/03/07 08:35:00;;;;;;;10.93;9.13;;;;;;;5.09;nan;99994.44;4884329;29;20202;-74
2022/03/07 08:37:25;;;;;;;9.73;7.97;;;;;;;5.36;nan;99986.56;4886718;29;20668;-75
2022/03/07 08:39:51;;;;;;;11.47;9.77;;;;;;;5.56;nan;99994.47;4886603;29;20373;-75
2022/03/07 08:42:16;;;;;;;10.13;8.40;;;;;;;5.80;nan;99989.28;4882789;29;20659;-74
2022/03/07 08:44:41;;;;;;;9.43;8.40;;;;;;;6.03;nan;99986.66;4886992;29;20202;-74
2022/03/07 08:47:08;;;;;;;14.17;10.17;;;;;;;6.11;nan;99997.66;4886415;29;20871;-72
2022/03/07 08:49:33;;;;;;;11.48;8.90;;;;;;;6.36;nan;99992.31;4882504;29;20668;-73
2022/03/07 08:51:58;;;;;;;11.90;8.93;;;;;;;6.56;nan;99983.69;4885433;29;20298;-71
2022/03/07 08:54:24;;;;;;;9.80;8.60;;;;;;;6.59;nan;99982.72;4885906;29;20223;-72
2022/03/07 08:56:49;;;;;;;12.10;9.43;;;;;;;6.91;nan;99983.94;4886656;29;20215;-75
2022/03/07 08:59:15;;;;;;;13.63;8.80;;;;;;;7.06;nan;99977.22;4882933;29;20203;-73
2022/03/07 09:01:40;;;;;;;14.40;10.73;;;;;;;7.16;nan;99983.75;4885700;29;20493;-72
2022/03/07 09:04:06;;;;;;;9.90;8.80;;;;;;;7.13;nan;99973.44;4886973;29;20623;-73
2022/03/07 09:06:31;;;;;;;12.50;10.30;;;;;;;6.87;nan;99979.78;4885766;29;20233;-72
2022/03/07 09:08:56;;;;;;;11.93;9.37;;;;;;;6.73;nan;99990.81;4886866;29;20203;-74
2022/03/07 09:11:22;;;;;;;13.67;9.77;;;;;;;6.69;nan;99985.78;4882398;29;20289;-72
2022/03/07 09:13:47;;;;;;;9.20;8.27;;;;;;;6.92;nan;99975.22;4882345;29;20206;-75
2022/03/07 09:16:14;;;;;;;12.30;10.03;;;;;;;6.94;nan;99982.97;4883317;29;20317;-73
2022/03/07 09:18:41;;;;;;;12.80;9.82;;;;;;;6.80;nan;99975.72;4883922;29;20257;-72
2022/03/07 09:21:07;;;;;;;9.70;8.80;;;;;;;6.93;nan;99974.28;4884852;29;20314;-75
2022/03/07 09:23:37;;;;;;;11.57;9.07;;;;;;;7.07;nan;99976.31;4884606;29;20667;-72
2022/03/07 09:26:06;;;;;;;11.38;7.85;;;;;;;7.25;nan;99977.28;4887284;29;20552;-74
2022/03/07 09:28:33;;;;;;;11.02;9.82;;;;;;;7.17;nan;99975.00;4889284;29;20218;-75
2022/03/07 09:31:00;;;;;;;8.60;7.78;;;;;;;7.15;nan;99975.97;4889407;29;20209;-72
2022/03/07 09:33:26;;;;;;;11.30;9.27;;;;;;;7.30;nan;99970.09;4887183;29;20229;-74
2022/03/07 09:35:52;;;;;;;15.43;10.98;;;;;;;7.48;nan;99969.28;4889485;29;20550;-75
2022/03/07 09:38:17;;;;;;;9.30;8.43;;;;;;;7.42;nan;99982.59;4888607;29;20698;-74
2022/03/07 09:40:42;;;;;;;11.57;9.20;;;;;;;7.21;nan;99986.16;4884376;29;20206;-74
2022/03/07 09:43:08;;;;;;;11.87;9.40;;;;;;;7.11;nan;99984.88;4889353;29;20226;-73
2022/03/07 09:45:35;;;;;;;11.73;9.40;;;;;;;7.18;nan;99975.84;4870902;29;20290;-72
2022/03/07 09:48:01;;;;;;;13.20;9.68;;;;;;;6.89;nan;99980.56;4888084;29;20558;-77
2022/03/07 09:50:27;;;;;;;11.33;9.40;;;;;;;6.64;nan;99984.22;4888428;29;20286;-72
2022/03/07 09:52:54;;;;;;;11.02;8.30;;;;;;;6.39;nan;99986.13;4885750;29;20988;-72
2022/03/07 09:55:21;;;;;;;10.75;8.80;;;;;;;5.96;nan;99987.81;4887498;29;20199;-73
2022/03/07 09:57:48;;;;;;;10.23;9.02;;;;;;;5.84;nan;99991.72;4888179;29;20235;-72
2022/03/07 10:00:16;;;;;;;11.55;8.90;;;;;;;5.76;nan;99991.16;4888027;29;20603;-73
2022/03/07 10:02:59;;;;;;;16.50;9.70;;;;;;;5.77;nan;99987.63;4884837;29;20433;-73
2022/03/07 10:05:32;;;;;;;11.40;10.20;;;;;;;5.90;nan;99988.84;4890437;29;20221;-72
2022/03/07 10:07:58;;;;;;;11.65;9.10;;;;;;;5.95;nan;99984.34;4893495;29;20314;-72
2022/03/07 10:10:29;;;;;;;9.63;8.60;;;;;;;5.89;nan;99983.72;4892284;29;20310;-73
2022/03/07 10:12:54;;;;;;;9.00;8.02;;;;;;;5.62;nan;99983.84;4871401;29;20223;-73
2022/03/07 10:15:21;;;;;;;11.13;9.33;;;;;;;5.57;nan;99980.56;4891803;29;20218;-72
2022/03/07 10:17:53;;;;;;;12.15;9.32;;;;;;;5.76;nan;99980.72;4891320;29;20235;-72
2022/03/07 10:20:22;;;;;;;11.98;9.02;;;;;;;5.89;nan;99976.75;4893119;29;20211;-77
2022/03/07 10:22:53;;;;;;;13.55;9.32;;;;;;;6.01;nan;99975.44;4883255;29;20234;-73
2022/03/07 10:25:25;;;;;;;12.20;10.15;;;;;;;6.00;nan;99978.13;4893057;29;20226;-73
2022/03/07 10:27:51;;;;;;;15.80;9.55;;;;;;;5.98;nan;99976.41;4893359;29;20254;-73
2022/03/07 10:30:26;;;;;;;17.10;10.55;;;;;;;6.05;nan;99973.56;4892251;29;20211;-74
2022/03/07 10:32:57;;;;;;;13.38;11.68;;;;;;;6.15;nan;99967.06;4878806;29;20803;-74
2022/03/07 10:35:44;;;;;;;12.85;10.77;;;;;;;6.16;nan;99969.63;4874582;29;20544;-73
2022/03/07 10:38:13;;;;;;;11.82;9.98;;;;;;;6.08;nan;99976.06;4882747;29;20821;-74
2022/03/07 10:40:42;;;;;;;15.10;9.77;;;;;;;6.14;nan;99970.59;4886202;29;20203;-73
2022/03/07 10:43:08;;;;;;;9.52;7.55;;;;;;;5.97;nan;99981.69;4875636;29;20262;-74
2022/03/07 10:45:44;;;;;;;14.98;9.63;;;;;;;5.95;nan;99981.75;4887843;29;20210;-73
2022/03/07 10:48:10;;;;;;;10.98;9.07;;;;;;;6.10;nan;99969.00;4885530;29;20660;-73
2022/03/07 10:50:35;;;;;;;11.03;9.10;;;;;;;6.30;nan;99966.47;4887339;29;20255;-74
2022/03/07 10:53:06;;;;;;;10.30;8.77;;;;;;;6.39;nan;99963.47;4906664;23;20729;-74
2022/03/07 10:55:33;;;;;;;12.45;9.20;;;;;;;6.40;nan;99973.03;4915938;29;20574;-75
2022/03/07 10:58:07;;;;;;;14.07;9.50;;;;;;;6.33;nan;99963.72;4918365;29;20320;-75
2022/03/07 11:00:32;;;;;;;17.42;10.40;;;;;;;6.29;nan;99971.72;4927433;29;20265;-74
2022/03/07 11:02:58;;;;;;;16.17;10.87;;;;;;;6.26;nan;99962.28;4924823;29;20778;-74
2022/03/07 11:05:24;;;;;;;12.57;9.50;;;;;;;6.33;nan;99965.50;4925105;29;20481;-74
2022/03/07 11:07:50;;;;;;;8.65;7.85;;;;;;;6.38;nan;99963.56;4922003;29;20190;-75
2022/03/07 11:10:16;;;;;;;14.83;9.53;;;;;;;6.42;nan;99960.72;4926815;29;20662;-74
2022/03/07 11:12:43;;;;;;;14.07;10.18;;;;;;;6.50;nan;99956.97;4925557;29;20745;-74
2022/03/07 11:15:10;;;;;;;10.77;9.85;;;;;;;6.57;nan;99954.06;4922785;29;20416;-74
2022/03/07 11:17:41;;;;;;;12.40;9.57;;;;;;;6.53;nan;99946.41;4924052;29;20229;-74
2022/03/07 11:20:09;;;;;;;12.95;9.45;;;;;;;6.51;nan;99943.88;4926917;29;20701;-74
2022/03/07 11:22:35;;;;;;;11.38;9.73;;;;;;;6.50;nan;99949.16;4925211;29;20292;-74
2022/03/07 11:25:02;;;;;;;18.03;11.20;;;;;;;6.55;nan;99944.59;4925036;29;20292;-74
2022/03/07 11:27:28;;;;;;;17.42;11.43;;;;;;;6.59;nan;99947.00;4924373;29;20954;-74
2022/03/07 11:29:55;;;;;;;12.70;10.82;;;;;;;6.41;nan;99948.63;4926284;29;20185;-74
2022/03/07 11:32:21;;;;;;;13.45;8.45;;;;;;;6.26;nan;99943.16;4927624;29;20431;-75
2022/03/07 11:34:59;;;;;;;12.50;10.70;;;;;;;6.19;nan;99950.41;4924797;29;20296;-75
2022/03/07 11:37:32;;;;;;;12.13;10.88;;;;;;;6.19;nan;99934.75;4925101;29;20473;-73